N6229P KEUG-KVUO

Flight info

Callsign N6229P
Flight time N/A
Altitude 4500
Route KEUG KVUO
Aircraft PA24/L-VGD/A

Departure

Time 2026-05-04 02:45
Airport Eugene Airport (KEUG)

Arrival

Time N/A
Airport Pearson Field (KVUO)
Time Latitude Longitude Altitude Speed Heading
2026-05-04 02:30 44.12544 -123.20939 364 ft 0 kts 121°
2026-05-04 02:35 44.12541 -123.20939 364 ft 1 kts 273°
2026-05-04 02:35 44.12548 -123.21005 365 ft 8 kts 315°
2026-05-04 02:35 44.12598 -123.20975 365 ft 13 kts 94°
2026-05-04 02:35 44.12598 -123.20825 366 ft 19 kts 90°
2026-05-04 02:36 44.12598 -123.20660 368 ft 7 kts 89°
2026-05-04 02:36 44.12599 -123.20594 368 ft 14 kts 88°
2026-05-04 02:36 44.12611 -123.20438 367 ft 17 kts 52°
2026-05-04 02:36 44.12722 -123.20420 370 ft 16 kts 359°
2026-05-04 02:37 44.12846 -123.20422 372 ft 21 kts 359°
2026-05-04 02:37 44.12998 -123.20424 372 ft 21 kts 360°
2026-05-04 02:37 44.13123 -123.20424 374 ft 16 kts 359°
2026-05-04 02:37 44.13205 -123.20489 370 ft 14 kts 341°
2026-05-04 02:38 44.13229 -123.20493 369 ft 0 kts
2026-05-04 02:43 44.13238 -123.20491 369 ft 8 kts 15°
2026-05-04 02:43 44.13276 -123.20407 369 ft 5 kts 52°
2026-05-04 02:43 44.13276 -123.20406 369 ft 0 kts 53°
2026-05-04 02:44 44.13287 -123.20365 369 ft 14 kts 84°
2026-05-04 02:44 44.13238 -123.20273 371 ft 20 kts 176°
2026-05-04 02:44 44.12834 -123.20266 393 ft 86 kts 178°
2026-05-04 02:45 44.12204 -123.20252 588 ft 96 kts 179°
2026-05-04 02:45 44.11523 -123.20243 914 ft 97 kts 181°
2026-05-04 02:45 44.10845 -123.20181 1209 ft 99 kts 163°
2026-05-04 02:45 44.10335 -123.19524 1405 ft 109 kts 114°
2026-05-04 02:46 44.10207 -123.18492 1536 ft 109 kts 92°
2026-05-04 02:46 44.10406 -123.17494 1621 ft 110 kts 40°
2026-05-04 02:46 44.11150 -123.17231 1637 ft 114 kts 360°
2026-05-04 02:46 44.11957 -123.17203 1664 ft 118 kts 360°
2026-05-04 02:47 44.12771 -123.17152 1747 ft 116 kts
2026-05-04 02:47 44.13567 -123.17057 1889 ft 105 kts
2026-05-04 02:47 44.14247 -123.17009 2276 ft 96 kts
2026-05-04 02:47 44.14907 -123.16979 2551 ft 94 kts
2026-05-04 02:48 44.15535 -123.16892 2784 ft 91 kts
2026-05-04 02:48 44.16183 -123.16696 2944 ft 95 kts 10°
2026-05-04 02:48 44.16840 -123.16524 3132 ft 94 kts
2026-05-04 02:48 44.17462 -123.16346 3334 ft 92 kts 12°
2026-05-04 02:49 44.18086 -123.16144 3522 ft 92 kts 10°
2026-05-04 02:49 44.18712 -123.15960 3706 ft 91 kts
2026-05-04 02:49 44.19348 -123.15833 3857 ft 95 kts
2026-05-04 02:49 44.19998 -123.15752 4047 ft 93 kts
2026-05-04 02:50 44.20647 -123.15662 4204 ft 95 kts
2026-05-04 02:50 44.21302 -123.15530 4374 ft 95 kts
2026-05-04 02:50 44.21966 -123.15511 4522 ft 99 kts 360°
2026-05-04 02:50 44.22685 -123.15537 4607 ft 105 kts 360°
2026-05-04 02:51 44.23427 -123.15570 4702 ft 109 kts 359°
2026-05-04 02:51 44.24200 -123.15621 4723 ft 118 kts 359°
2026-05-04 02:51 44.25066 -123.15671 4620 ft 133 kts
2026-05-04 02:51 44.26009 -123.15458 4547 ft 137 kts 19°
2026-05-04 02:52 44.26565 -123.15107 4662 ft 129 kts 25°
2026-05-04 02:52 44.27405 -123.14571 4585 ft 137 kts 23°
2026-05-04 02:52 44.28298 -123.14027 4518 ft 140 kts 23°
2026-05-04 02:52 44.29479 -123.13315 4515 ft 139 kts 23°
2026-05-04 02:53 44.30080 -123.12953 4515 ft 140 kts 22°
2026-05-04 02:53 44.30972 -123.12418 4530 ft 140 kts 22°
2026-05-04 02:53 44.31858 -123.11891 4523 ft 140 kts 23°
2026-05-04 02:53 44.32757 -123.11351 4535 ft 140 kts 22°
2026-05-04 02:54 44.33659 -123.10811 4525 ft 141 kts 22°
2026-05-04 02:54 44.34575 -123.10302 4525 ft 141 kts 20°
2026-05-04 02:54 44.35493 -123.09810 4524 ft 141 kts 20°
2026-05-04 02:54 44.36414 -123.09315 4522 ft 141 kts 20°
2026-05-04 02:55 44.38246 -123.08343 4528 ft 142 kts 20°
2026-05-04 02:55 44.39172 -123.07858 4521 ft 142 kts 20°
2026-05-04 02:55 44.40098 -123.07380 4527 ft 142 kts 20°
2026-05-04 02:56 44.41019 -123.06897 4522 ft 141 kts 20°
2026-05-04 02:56 44.41940 -123.06418 4525 ft 141 kts 20°
2026-05-04 02:56 44.42863 -123.05941 4525 ft 141 kts 20°
2026-05-04 02:56 44.43782 -123.05464 4520 ft 141 kts 20°
2026-05-04 02:57 44.44689 -123.04998 4524 ft 141 kts 20°
2026-05-04 02:57 44.45611 -123.04523 4521 ft 141 kts 20°
2026-05-04 02:57 44.46534 -123.04045 4526 ft 141 kts 20°
2026-05-04 02:57 44.47459 -123.03576 4526 ft 141 kts 20°
2026-05-04 02:58 44.48386 -123.03102 4527 ft 142 kts 20°
2026-05-04 02:58 44.49316 -123.02629 4525 ft 142 kts 20°
2026-05-04 02:58 44.50242 -123.02151 4519 ft 142 kts 20°
2026-05-04 02:58 44.51168 -123.01678 4523 ft 141 kts 19°